Grates Cove, Canada
Current Conditions -  °F | °C
As of 10:00 PM on Thursday 18 Dec 2014 (Local Time) from CYYT Reporting Station
Light Rain Light Rain  
Wind Chill: 32°   Ceiling: 200
Heat Index: 41°   Visibility: 1.2mi
Dew Point: 41°   Wind: 21mph
Humidity: 100%   Direction: 150°SSE
Pressure: 29.62"   Gusts: 26mph
Location:  48.17°N, 52.93°W
Report Text: CYYT 190100Z 15018G23KT 1 1/4SM -RA BR OVC002 05/05 A2962 RMK FG4SF4 PRESFR SLP035
Loading
Personal Weather Stations






























Interactive Weather Map New forecast layout! Learn more

10-Day Weather Forecast

Advertisements
Track Severe Weather on mobile